Time;durP1;ratioP1;P1;durP2;ratioP2;P2;SDS_P1;SDS_P2;PMS_P1;PMS_P2;Temp;Humidity;BMP_temperature;BMP_pressure;BME280_temperature;BME280_humidity;BME280_pressure;Samples;Min_cycle;Max_cycle;Signal;HPM_P1;HPM_P2
2022/12/01 00:01:49;;;;;;;7.53;5.15;;;17.30;83.10;;;;;;6183639;23;45431;-72
2022/12/01 00:04:16;;;;;;;7.50;5.15;;;17.30;81.90;;;;;;6183652;23;45398;-72
2022/12/01 00:06:43;;;;;;;8.57;5.28;;;17.30;81.40;;;;;;6183063;23;45218;-72
2022/12/01 00:11:54;;;;;;;8.50;5.45;;;17.20;81.90;;;;;;6182430;23;45316;-72
2022/12/01 00:14:22;;;;;;;7.80;5.25;;;17.20;81.60;;;;;;6182756;23;45240;-72
2022/12/01 00:16:49;;;;;;;8.25;5.50;;;17.30;81.70;;;;;;6182987;23;45249;-72
2022/12/01 00:19:16;;;;;;;8.50;5.25;;;17.20;81.40;;;;;;6182382;23;45332;-72
2022/12/01 00:21:43;;;;;;;9.05;5.50;;;17.20;81.50;;;;;;6183262;23;45256;-72
2022/12/01 00:24:11;;;;;;;9.07;5.35;;;17.30;81.70;;;;;;6182949;23;45320;-72
2022/12/01 00:26:38;;;;;;;8.68;5.88;;;17.20;81.10;;;;;;6183260;23;45309;-72
2022/12/01 00:29:05;;;;;;;9.68;6.00;;;17.30;82.00;;;;;;6181688;23;47284;-72
2022/12/01 00:31:33;;;;;;;8.45;5.38;;;17.20;82.30;;;;;;6183238;23;45225;-72
2022/12/01 00:34:01;;;;;;;9.15;5.75;;;17.30;82.80;;;;;;6182736;23;45367;-73
2022/12/01 00:36:28;;;;;;;9.65;6.25;;;17.20;82.40;;;;;;6183861;23;45457;-72
2022/12/01 00:38:56;;;;;;;8.18;5.70;;;17.30;82.80;;;;;;6181030;23;47561;-72
2022/12/01 00:41:24;;;;;;;9.60;5.85;;;17.30;83.10;;;;;;6182129;23;45276;-72
2022/12/01 00:43:51;;;;;;;10.10;5.70;;;17.30;82.70;;;;;;6183207;23;45364;-72
2022/12/01 00:46:19;;;;;;;8.98;5.50;;;17.30;82.80;;;;;;6182769;23;45319;-72
2022/12/01 00:48:47;;;;;;;9.15;5.65;;;17.30;83.40;;;;;;6180310;23;46293;-73
2022/12/01 00:51:14;;;;;;;8.75;5.93;;;17.30;83.50;;;;;;6182169;23;45292;-73
2022/12/01 00:53:40;;;;;;;8.32;5.38;;;17.30;82.90;;;;;;6182776;23;45489;-73
2022/12/01 00:56:08;;;;;;;8.55;5.63;;;17.30;82.60;;;;;;6183184;23;45205;-72
2022/12/01 00:58:35;;;;;;;10.95;6.05;;;17.30;81.60;;;;;;6182401;23;46843;-73
2022/12/01 01:01:02;;;;;;;9.80;6.18;;;17.30;81.70;;;;;;6182405;23;45224;-73
2022/12/01 01:03:30;;;;;;;9.38;6.43;;;17.20;81.50;;;;;;6182606;23;45364;-72
2022/12/01 01:06:03;;;;;;;9.05;6.05;;;17.30;81.40;;;;;;6183075;23;45248;-72
2022/12/01 01:08:30;;;;;;;8.40;5.63;;;17.20;81.20;;;;;;6182720;23;47418;-73
2022/12/01 01:10:59;;;;;;;9.18;5.47;;;17.20;81.00;;;;;;6181454;23;45527;-73
2022/12/01 01:13:26;;;;;;;10.10;6.22;;;17.30;81.20;;;;;;6182931;23;45239;-73
2022/12/01 01:15:58;;;;;;;10.00;5.93;;;17.30;81.10;;;;;;6182416;23;45194;-72
2022/12/01 01:18:24;;;;;;;10.43;6.55;;;17.20;81.20;;;;;;6182934;23;46669;-73
2022/12/01 01:20:55;;;;;;;10.13;6.47;;;17.20;81.00;;;;;;6181536;23;45256;-73
2022/12/01 01:23:24;;;;;;;9.73;5.55;;;17.20;82.10;;;;;;6183272;23;45316;-73
2022/12/01 01:25:51;;;;;;;11.30;6.45;;;17.20;82.20;;;;;;6182043;23;45336;-72
2022/12/01 01:28:18;;;;;;;8.68;5.50;;;17.20;82.40;;;;;;6182576;23;45477;-72
2022/12/01 01:30:45;;;;;;;10.85;6.68;;;17.20;82.70;;;;;;6181848;23;45456;-73
2022/12/01 01:33:12;;;;;;;10.43;6.22;;;17.20;81.80;;;;;;6182510;23;45345;-73
2022/12/01 01:35:39;;;;;;;10.80;6.68;;;17.30;82.90;;;;;;6182933;23;45229;-73
2022/12/01 01:38:05;;;;;;;10.20;6.22;;;17.30;82.80;;;;;;6182438;23;47674;-72
2022/12/01 01:40:34;;;;;;;11.38;7.07;;;17.30;82.50;;;;;;6182227;23;45256;-73
2022/12/01 01:43:01;;;;;;;9.50;6.10;;;17.30;82.10;;;;;;6182210;23;45254;-72
2022/12/01 01:45:30;;;;;;;11.20;6.57;;;17.30;82.50;;;;;;6183012;23;45250;-73
2022/12/01 01:47:59;;;;;;;11.18;7.03;;;17.30;81.80;;;;;;6181827;23;46396;-72
2022/12/01 01:50:28;;;;;;;10.43;6.80;;;17.30;81.70;;;;;;6181276;23;45348;-73
2022/12/01 01:53:01;;;;;;;9.50;6.63;;;17.30;81.40;;;;;;6182761;23;45367;-73
2022/12/01 01:55:29;;;;;;;10.85;7.05;;;17.20;81.10;;;;;;6182415;23;45308;-72
2022/12/01 01:57:58;;;;;;;11.40;7.22;;;17.30;81.50;;;;;;6182583;23;46469;-73
2022/12/01 02:00:25;;;;;;;11.80;7.10;;;17.30;80.80;;;;;;6181476;23;45315;-72
2022/12/01 02:02:54;;;;;;;12.65;7.13;;;17.30;80.90;;;;;;6182811;23;45296;-72
2022/12/01 02:05:23;;;;;;;13.55;7.78;;;17.30;80.90;;;;;;6181540;23;45325;-72
2022/12/01 02:07:51;;;;;;;12.50;7.00;;;17.30;81.20;;;;;;6180650;23;46270;-73
2022/12/01 02:10:22;;;;;;;11.75;7.57;;;17.20;80.50;;;;;;6181037;23;45257;-73
2022/12/01 02:13:09;;;;;;;14.60;7.68;;;17.30;81.00;;;;;;6181522;23;45173;-73
2022/12/01 02:15:44;;;;;;;13.45;7.88;;;17.20;80.80;;;;;;6181382;23;45365;-72
2022/12/01 02:18:23;;;;;;;13.45;8.45;;;17.20;82.00;;;;;;6182260;23;45374;-73
2022/12/01 02:21:26;;;;;;;12.90;7.85;;;17.20;81.60;;;;;;6181663;23;45352;-72
2022/12/01 02:24:26;;;;;;;14.32;7.95;;;17.30;81.90;;;;;;6172079;23;45397;-73
2022/12/01 02:27:01;;;;;;;15.40;8.00;;;17.20;81.80;;;;;;6181239;23;45409;-72
2022/12/01 02:29:56;;;;;;;15.85;8.48;;;17.30;82.50;;;;;;6180819;23;45333;-72
2022/12/01 02:32:30;;;;;;;14.55;8.73;;;17.20;82.40;;;;;;6182219;23;45396;-72
2022/12/01 02:34:59;;;;;;;15.77;8.50;;;17.20;82.90;;;;;;6182101;23;45288;-72
2022/12/01 02:37:32;;;;;;;15.27;7.95;;;17.20;82.60;;;;;;6182400;23;45238;-72
2022/12/01 02:40:09;;;;;;;15.23;8.68;;;17.20;82.40;;;;;;6183102;23;46870;-72
2022/12/01 02:42:51;;;;;;;15.55;8.13;;;17.30;82.60;;;;;;6182948;23;45305;-72
2022/12/01 02:45:23;;;;;;;13.88;8.55;;;17.20;81.50;;;;;;6183952;23;45296;-72
2022/12/01 02:47:55;;;;;;;15.23;8.63;;;17.20;81.70;;;;;;6182071;23;45397;-72
2022/12/01 02:50:25;;;;;;;15.48;9.07;;;17.20;81.70;;;;;;6182726;23;45371;-72
2022/12/01 02:52:53;;;;;;;17.60;9.20;;;17.20;81.50;;;;;;6183017;23;45236;-72
2022/12/01 02:55:20;;;;;;;16.02;8.65;;;17.20;80.90;;;;;;6183015;23;45245;-72
2022/12/01 02:57:47;;;;;;;16.92;9.23;;;17.20;81.50;;;;;;6183958;23;45405;-72
2022/12/01 03:00:15;;;;;;;14.82;8.52;;;17.20;81.50;;;;;;6182359;23;47328;-72
2022/12/01 03:02:55;;;;;;;18.55;9.55;;;17.20;81.00;;;;;;6183741;23;45172;-72
2022/12/01 03:05:28;;;;;;;19.50;9.57;;;17.20;81.00;;;;;;6182966;23;45413;-72
2022/12/01 03:08:01;;;;;;;18.17;9.57;;;17.20;80.70;;;;;;6184034;23;45213;-72
2022/12/01 03:10:34;;;;;;;20.33;10.23;;;17.20;81.50;;;;;;6181740;23;45263;-73
2022/12/01 03:13:09;;;;;;;18.45;10.00;;;17.20;82.20;;;;;;6183572;23;45425;-72
2022/12/01 03:15:44;;;;;;;18.63;10.23;;;17.20;82.40;;;;;;6183207;23;45241;-72
2022/12/01 03:18:22;;;;;;;19.27;10.40;;;17.20;82.10;;;;;;6183739;23;45411;-72
2022/12/01 03:20:59;;;;;;;20.67;10.82;;;17.20;81.90;;;;;;6182800;23;45472;-72
2022/12/01 03:23:30;;;;;;;21.98;11.00;;;17.30;82.20;;;;;;6182974;23;45295;-73
2022/12/01 03:25:59;;;;;;;18.35;10.80;;;17.20;82.10;;;;;;6183452;23;45236;-72
2022/12/01 03:28:33;;;;;;;20.90;11.25;;;17.20;82.10;;;;;;6182862;23;45396;-73
2022/12/01 03:31:03;;;;;;;21.90;10.85;;;17.30;82.20;;;;;;6182402;23;45322;-72
2022/12/01 03:33:34;;;;;;;23.05;11.10;;;17.20;81.90;;;;;;6183053;23;45749;-72
2022/12/01 03:36:08;;;;;;;24.02;11.63;;;17.20;81.20;;;;;;6183612;23;45384;-73
2022/12/01 03:38:37;;;;;;;22.80;11.15;;;17.20;80.30;;;;;;6184006;23;45427;-73
2022/12/01 03:41:10;;;;;;;24.73;11.27;;;17.20;80.30;;;;;;6181952;23;45487;-72
2022/12/01 03:43:44;;;;;;;22.17;11.02;;;17.20;79.90;;;;;;6183511;23;45334;-72
2022/12/01 03:46:18;;;;;;;24.48;12.15;;;17.20;80.20;;;;;;6183139;23;45300;-72
2022/12/01 03:48:46;;;;;;;23.15;11.80;;;17.20;80.10;;;;;;6181539;23;45364;-72
2022/12/01 03:51:21;;;;;;;27.13;11.88;;;17.20;80.10;;;;;;6181972;23;48443;-72
2022/12/01 03:53:55;;;;;;;25.42;12.45;;;17.20;79.80;;;;;;6183645;23;45266;-72
2022/12/01 03:56:26;;;;;;;26.52;13.02;;;17.20;80.00;;;;;;6183226;23;45376;-72
2022/12/01 03:58:56;;;;;;;24.85;11.50;;;17.20;79.50;;;;;;6183499;23;45546;-72
2022/12/01 04:01:25;;;;;;;24.92;11.77;;;17.20;79.50;;;;;;6182768;23;45448;-72
2022/12/01 04:03:51;;;;;;;27.00;12.98;;;17.20;79.60;;;;;;6182695;23;45427;-72
2022/12/01 04:06:20;;;;;;;26.55;13.02;;;17.20;81.10;;;;;;6183316;23;45245;-72
2022/12/01 04:08:46;;;;;;;26.40;12.60;;;17.20;80.70;;;;;;6183014;23;45296;-72
2022/12/01 04:13:57;;;;;;;26.55;12.55;;;17.20;80.90;;;;;;6182794;23;45265;-72
2022/12/01 04:16:24;;;;;;;26.45;13.38;;;17.20;80.60;;;;;;6183328;23;45438;-72
2022/12/01 04:18:51;;;;;;;29.00;12.73;;;17.20;81.20;;;;;;6183753;23;45473;-72
2022/12/01 04:21:17;;;;;;;27.65;13.38;;;17.20;80.90;;;;;;6181991;23;45408;-72
2022/12/01 04:24:00;;;;;;;23.35;12.55;;;17.20;80.70;;;;;;6183308;23;45412;-72
2022/12/01 04:26:28;;;;;;;28.00;13.75;;;17.20;80.60;;;;;;6182786;23;45289;-72
2022/12/01 04:28:55;;;;;;;30.63;13.75;;;17.10;79.30;;;;;;6183610;23;45293;-72
2022/12/01 04:31:22;;;;;;;28.42;13.68;;;17.10;79.10;;;;;;6180886;23;47018;-72
2022/12/01 04:33:48;;;;;;;29.73;12.73;;;17.10;78.00;;;;;;6182807;23;45316;-72
2022/12/01 04:36:15;;;;;;;24.63;12.65;;;17.10;77.70;;;;;;6182743;23;45408;-72
2022/12/01 04:38:42;;;;;;;26.80;12.77;;;17.10;77.30;;;;;;6182468;23;45204;-72
2022/12/01 04:41:11;;;;;;;25.60;12.95;;;17.10;76.80;;;;;;6181858;23;48255;-72
2022/12/01 04:43:38;;;;;;;26.15;12.63;;;17.10;76.20;;;;;;6182801;23;46384;-72
2022/12/01 04:46:06;;;;;;;31.63;13.88;;;17.10;75.70;;;;;;6183222;23;45280;-72
2022/12/01 04:48:34;;;;;;;28.50;13.80;;;17.10;75.70;;;;;;6181777;23;45538;-72
2022/12/01 04:51:01;;;;;;;26.63;12.57;;;17.10;75.70;;;;;;6181688;23;45682;-73
2022/12/01 04:53:28;;;;;;;29.45;14.05;;;17.00;75.60;;;;;;6183309;23;45144;-72
2022/12/01 04:55:55;;;;;;;25.88;12.63;;;17.10;75.10;;;;;;6182425;23;45237;-73
2022/12/01 04:58:23;;;;;;;26.50;12.70;;;17.00;75.40;;;;;;6183475;23;45292;-73
2022/12/01 05:00:50;;;;;;;28.10;13.73;;;17.10;76.30;;;;;;6181447;23;46294;-72
2022/12/01 05:03:17;;;;;;;27.77;13.02;;;17.10;76.50;;;;;;6182719;23;45232;-72
2022/12/01 05:05:44;;;;;;;27.35;14.05;;;17.10;76.30;;;;;;6181837;23;45344;-73
2022/12/01 05:08:11;;;;;;;26.40;13.23;;;17.10;77.30;;;;;;6181162;23;45471;-73
2022/12/01 05:10:38;;;;;;;26.90;13.40;;;17.10;77.40;;;;;;6181910;23;47780;-73
2022/12/01 05:13:06;;;;;;;29.85;13.90;;;17.10;76.90;;;;;;6181986;23;45224;-73
2022/12/01 05:15:34;;;;;;;25.75;12.60;;;17.10;76.70;;;;;;6181937;23;45360;-72
2022/12/01 05:18:01;;;;;;;28.35;13.10;;;17.10;77.10;;;;;;6183367;23;45484;-72
2022/12/01 05:23:12;;;;;;;22.27;10.88;;;17.10;75.70;;;;;;6183422;23;45309;-72
2022/12/01 05:25:39;;;;;;;22.98;10.98;;;17.00;74.60;;;;;;6182515;23;45377;-73
2022/12/01 05:28:05;;;;;;;21.73;10.40;;;17.00;74.30;;;;;;6182658;23;45240;-73
2022/12/01 05:30:34;;;;;;;19.65;10.57;;;17.00;74.00;;;;;;6181405;23;48559;-73
2022/12/01 05:33:00;;;;;;;17.52;9.35;;;17.00;73.80;;;;;;6182997;23;45391;-73
2022/12/01 05:35:28;;;;;;;18.23;10.02;;;17.00;73.10;;;;;;6182838;23;45414;-73
2022/12/01 05:37:54;;;;;;;18.77;9.77;;;17.00;73.00;;;;;;6182589;23;45223;-73
2022/12/01 05:40:21;;;;;;;16.67;9.00;;;17.00;72.60;;;;;;6181786;23;45469;-73
2022/12/01 05:42:48;;;;;;;16.80;8.93;;;17.00;72.60;;;;;;6181981;23;45405;-72
2022/12/01 05:45:15;;;;;;;16.65;8.95;;;17.00;72.60;;;;;;6182672;23;45370;-73
2022/12/01 05:47:43;;;;;;;20.33;9.13;;;17.00;72.50;;;;;;6181627;23;45296;-73
2022/12/01 05:50:10;;;;;;;17.38;9.20;;;17.00;72.20;;;;;;6181252;23;47646;-73
2022/12/01 05:52:37;;;;;;;15.32;9.18;;;17.00;72.80;;;;;;6183028;23;45277;-73
2022/12/01 05:55:05;;;;;;;16.70;8.82;;;17.00;74.10;;;;;;6182618;23;45278;-73
2022/12/01 05:57:33;;;;;;;14.48;8.43;;;17.00;74.70;;;;;;6182875;23;45251;-73
2022/12/01 05:59:59;;;;;;;14.98;8.50;;;17.00;74.80;;;;;;6181675;23;45259;-73
2022/12/01 06:02:26;;;;;;;16.95;8.57;;;17.00;74.60;;;;;;6182782;23;45295;-73
2022/12/01 06:04:54;;;;;;;15.95;8.23;;;17.00;74.90;;;;;;6183067;23;45510;-73
2022/12/01 06:07:24;;;;;;;18.05;8.68;;;17.00;75.00;;;;;;6180279;23;45322;-72
2022/12/01 06:09:50;;;;;;;16.02;9.00;;;17.00;74.80;;;;;;6181574;23;46668;-73
2022/12/01 06:12:17;;;;;;;16.25;8.63;;;17.00;75.00;;;;;;6181876;23;45292;-73
2022/12/01 06:14:45;;;;;;;16.33;8.80;;;17.00;74.50;;;;;;6183615;23;45271;-73
2022/12/01 06:17:12;;;;;;;18.05;8.77;;;17.00;72.80;;;;;;6183407;23;45436;-72
2022/12/01 06:19:38;;;;;;;16.48;8.80;;;17.00;72.50;;;;;;6180240;23;45554;-72
2022/12/01 06:22:07;;;;;;;14.68;8.48;;;17.00;72.00;;;;;;6183510;23;45253;-72
2022/12/01 06:24:33;;;;;;;16.88;9.85;;;17.00;72.60;;;;;;6182679;23;45286;-72
2022/12/01 06:27:00;;;;;;;16.13;8.93;;;17.00;72.40;;;;;;6183833;23;45569;-74
2022/12/01 06:29:27;;;;;;;17.77;10.65;;;17.00;71.80;;;;;;6181175;23;45367;-72
2022/12/01 06:31:54;;;;;;;17.27;9.52;;;17.00;72.50;;;;;;6182763;23;45216;-72
2022/12/01 06:34:21;;;;;;;19.23;9.73;;;16.90;71.70;;;;;;6183898;23;45193;-73
2022/12/01 06:36:48;;;;;;;18.23;10.30;;;16.90;71.80;;;;;;6181601;23;45283;-73
2022/12/01 06:39:18;;;;;;;18.48;10.45;;;16.90;71.70;;;;;;6180046;23;46266;-73
2022/12/01 06:41:45;;;;;;;18.90;10.73;;;16.90;71.70;;;;;;6181072;23;45364;-73
2022/12/01 06:44:12;;;;;;;19.40;11.38;;;16.90;71.40;;;;;;6182334;23;45213;-72
2022/12/01 06:46:38;;;;;;;18.95;10.88;;;16.90;71.40;;;;;;6179928;23;45328;-72
2022/12/01 06:49:05;;;;;;;19.00;11.02;;;16.90;72.10;;;;;;6181996;23;46273;-72
2022/12/01 06:51:33;;;;;;;19.65;11.32;;;16.90;72.40;;;;;;6180714;23;45276;-73
2022/12/01 06:54:00;;;;;;;21.73;10.45;;;17.00;72.50;;;;;;6179348;23;45377;-73
2022/12/01 06:56:28;;;;;;;18.65;10.27;;;17.00;74.90;;;;;;6183734;23;45323;-73
2022/12/01 06:58:55;;;;;;;17.90;9.85;;;17.00;73.80;;;;;;6182631;23;46577;-73
2022/12/01 07:01:22;;;;;;;20.10;9.98;;;17.00;73.70;;;;;;6182199;23;45292;-73
2022/12/01 07:03:49;;;;;;;19.65;10.60;;;17.00;73.10;;;;;;6182956;23;45281;-73
2022/12/01 07:06:17;;;;;;;18.77;9.85;;;17.00;73.60;;;;;;6180790;23;45413;-73
2022/12/01 07:08:44;;;;;;;19.63;10.30;;;16.90;74.50;;;;;;6184087;23;45505;-73
2022/12/01 07:11:13;;;;;;;20.70;10.43;;;17.00;74.00;;;;;;6183126;23;45245;-73
2022/12/01 07:13:44;;;;;;;19.60;10.45;;;16.90;73.20;;;;;;6182998;23;45301;-73
2022/12/01 07:16:11;;;;;;;20.98;11.02;;;16.90;72.60;;;;;;6183569;23;45436;-73
2022/12/01 07:18:39;;;;;;;23.35;11.07;;;16.90;72.00;;;;;;6183796;23;45471;-73
2022/12/01 07:21:07;;;;;;;21.08;10.88;;;16.90;71.50;;;;;;6184601;23;45205;-73
2022/12/01 07:23:35;;;;;;;21.83;11.32;;;16.80;71.30;;;;;;6181640;23;45308;-73
2022/12/01 07:26:18;;;;;;;19.60;10.38;;;16.80;70.90;;;;;;6184297;23;45305;-73
2022/12/01 07:28:46;;;;;;;22.10;11.10;;;16.80;70.70;;;;;;6185163;23;45246;-73
2022/12/01 07:31:14;;;;;;;23.20;10.50;;;16.80;70.50;;;;;;6183839;23;45335;-73
2022/12/01 07:33:41;;;;;;;22.30;10.75;;;16.80;70.50;;;;;;6183378;23;45328;-73
2022/12/01 07:36:10;;;;;;;22.00;11.55;;;16.80;70.00;;;;;;6182616;23;45398;-73
2022/12/01 07:38:38;;;;;;;22.13;11.45;;;16.80;70.40;;;;;;6182613;23;45501;-73
2022/12/01 07:41:06;;;;;;;21.48;11.60;;;16.80;70.80;;;;;;6181087;23;45248;-73
2022/12/01 07:43:33;;;;;;;21.92;11.82;;;16.90;71.50;;;;;;6182532;23;45248;-73
2022/12/01 07:46:07;;;;;;;20.42;11.05;;;16.90;72.20;;;;;;6184879;23;45224;-72
2022/12/01 07:48:34;;;;;;;18.80;10.88;;;16.90;72.20;;;;;;6185141;23;45391;-73
2022/12/01 07:51:01;;;;;;;20.08;10.85;;;16.90;72.10;;;;;;6182222;23;45871;-73
2022/12/01 07:53:28;;;;;;;22.00;11.60;;;16.90;72.50;;;;;;6180845;23;45439;-72
2022/12/01 07:55:55;;;;;;;21.67;10.70;;;16.90;72.90;;;;;;6183223;23;45379;-73
2022/12/01 07:58:21;;;;;;;22.30;10.25;;;16.90;72.60;;;;;;6181826;23;45433;-73
2022/12/01 08:00:48;;;;;;;19.98;10.35;;;16.90;72.50;;;;;;6182360;23;45260;-73
2022/12/01 08:03:16;;;;;;;21.75;11.45;;;16.90;72.20;;;;;;6183525;23;45417;-73
2022/12/01 08:05:43;;;;;;;19.85;10.52;;;17.00;72.00;;;;;;6178314;23;45513;-73
2022/12/01 08:08:10;;;;;;;19.42;9.95;;;16.90;71.90;;;;;;6180927;23;46502;-73
2022/12/01 08:10:37;;;;;;;18.15;10.20;;;16.90;71.90;;;;;;6183602;23;45713;-73
2022/12/01 08:13:04;;;;;;;19.58;10.27;;;16.90;72.00;;;;;;6184522;23;45269;-73
2022/12/01 08:15:31;;;;;;;20.40;10.57;;;16.90;72.30;;;;;;6183183;23;45505;-73
2022/12/01 08:18:01;;;;;;;18.15;10.48;;;16.90;71.90;;;;;;6182097;23;46393;-73
2022/12/01 08:20:29;;;;;;;18.25;10.23;;;17.00;72.20;;;;;;6182587;23;45265;-73
2022/12/01 08:22:56;;;;;;;20.13;10.43;;;17.00;72.30;;;;;;6181520;23;45388;-73
2022/12/01 08:25:23;;;;;;;19.27;10.43;;;17.00;72.60;;;;;;6183451;23;45573;-73
2022/12/01 08:27:49;;;;;;;18.38;10.05;;;17.00;72.40;;;;;;6183207;23;46985;-73
2022/12/01 08:30:16;;;;;;;21.05;10.75;;;17.00;72.60;;;;;;6181663;23;45753;-73
2022/12/01 08:32:43;;;;;;;18.73;10.50;;;17.00;73.00;;;;;;6183239;23;45161;-72
2022/12/01 08:35:10;;;;;;;20.15;10.20;;;17.00;73.70;;;;;;6182307;23;45351;-73
2022/12/01 08:37:38;;;;;;;21.55;10.40;;;17.10;73.70;;;;;;6183024;23;46259;-73
2022/12/01 08:40:06;;;;;;;19.15;10.50;;;17.10;73.60;;;;;;6182407;23;45333;-73
2022/12/01 08:42:33;;;;;;;19.63;10.57;;;17.10;73.90;;;;;;6182710;23;45277;-73
2022/12/01 08:45:00;;;;;;;22.13;10.88;;;17.10;74.80;;;;;;6183449;23;45272;-73
2022/12/01 08:47:27;;;;;;;20.67;10.98;;;17.10;73.80;;;;;;6182143;23;46272;-73
2022/12/01 08:49:54;;;;;;;19.58;11.18;;;17.10;73.80;;;;;;6182781;23;45268;-73
2022/12/01 08:52:21;;;;;;;22.33;11.45;;;17.10;73.80;;;;;;6183133;23;45245;-73
2022/12/01 08:54:50;;;;;;;20.10;11.30;;;17.10;73.80;;;;;;6182831;23;45144;-73
2022/12/01 08:57:17;;;;;;;21.70;10.65;;;17.10;73.50;;;;;;6182978;23;45379;-73
2022/12/01 08:59:45;;;;;;;21.83;11.18;;;17.10;73.30;;;;;;6182398;23;45355;-73
2022/12/01 09:02:14;;;;;;;18.63;11.25;;;17.10;73.50;;;;;;6183054;23;45286;-73
2022/12/01 09:04:43;;;;;;;19.42;10.45;;;17.00;73.30;;;;;;6182928;23;45440;-73
2022/12/01 09:07:13;;;;;;;23.98;11.02;;;17.00;73.30;;;;;;6182339;23;47383;-73
2022/12/01 09:09:40;;;;;;;22.13;11.23;;;17.10;73.60;;;;;;6182741;23;45420;-73
2022/12/01 09:12:09;;;;;;;24.85;11.63;;;17.00;73.10;;;;;;6182390;23;45334;-73
2022/12/01 09:14:38;;;;;;;22.48;11.57;;;17.00;73.10;;;;;;6182856;23;45313;-73
2022/12/01 09:17:06;;;;;;;22.77;11.70;;;17.00;72.80;;;;;;6181750;23;46573;-73
2022/12/01 09:19:34;;;;;;;24.90;12.52;;;17.00;73.70;;;;;;6182470;23;45283;-73
2022/12/01 09:22:01;;;;;;;23.60;12.45;;;17.00;72.30;;;;;;6182968;23;45301;-73
2022/12/01 09:24:28;;;;;;;24.42;12.15;;;17.00;72.10;;;;;;6181622;23;45343;-73
2022/12/01 09:26:56;;;;;;;24.33;13.35;;;17.00;73.00;;;;;;6182888;23;45446;-73
2022/12/01 09:29:24;;;;;;;23.80;12.52;;;17.00;73.20;;;;;;6182565;23;45359;-73
2022/12/01 09:31:54;;;;;;;21.83;12.02;;;17.00;72.90;;;;;;6181482;23;45347;-73
2022/12/01 09:34:21;;;;;;;29.17;12.02;;;17.00;72.70;;;;;;6182458;23;45351;-73
2022/12/01 09:36:48;;;;;;;25.05;12.40;;;17.00;72.80;;;;;;6181611;23;46566;-73
2022/12/01 09:39:17;;;;;;;24.00;12.60;;;17.00;72.80;;;;;;6182664;23;45272;-73
2022/12/01 09:41:46;;;;;;;26.50;12.55;;;17.00;72.80;;;;;;6181375;23;45273;-72
2022/12/01 09:44:21;;;;;;;26.85;12.75;;;17.00;72.60;;;;;;6183188;23;45184;-73
2022/12/01 09:46:56;;;;;;;27.73;13.20;;;17.00;72.40;;;;;;6180559;23;46697;-73
2022/12/01 09:49:28;;;;;;;26.50;13.63;;;17.00;72.10;;;;;;6182129;23;45477;-73
2022/12/01 09:51:55;;;;;;;26.35;13.27;;;16.90;71.90;;;;;;6182522;23;45329;-73
2022/12/01 09:54:22;;;;;;;25.48;12.82;;;16.90;71.80;;;;;;6182125;23;45360;-73
2022/12/01 09:56:52;;;;;;;24.65;12.40;;;16.90;71.60;;;;;;6182444;23;46389;-73
2022/12/01 09:59:22;;;;;;;25.48;12.82;;;16.90;71.60;;;;;;6182124;23;45213;-73
2022/12/01 10:01:54;;;;;;;26.40;12.57;;;16.90;71.50;;;;;;6181768;23;45313;-73
2022/12/01 10:04:27;;;;;;;26.33;12.27;;;16.90;72.00;;;;;;6182744;23;45253;-73
2022/12/01 10:06:59;;;;;;;25.40;12.15;;;16.90;70.80;;;;;;6181773;23;45158;-73
2022/12/01 10:09:31;;;;;;;23.30;12.57;;;16.90;70.50;;;;;;6182525;23;45282;-73
2022/12/01 10:12:02;;;;;;;24.02;12.73;;;16.90;70.50;;;;;;6181271;23;45278;-73
2022/12/01 10:14:33;;;;;;;23.05;12.18;;;16.90;70.20;;;;;;6182746;23;45303;-73
2022/12/01 10:17:09;;;;;;;26.67;12.55;;;16.90;70.10;;;;;;6182342;23;46299;-73
2022/12/01 10:19:42;;;;;;;23.67;11.57;;;16.90;70.50;;;;;;6181995;23;45310;-73
2022/12/01 10:22:38;;;;;;;21.50;11.27;;;16.90;71.20;;;;;;6182429;23;45367;-73
2022/12/01 10:25:15;;;;;;;22.92;12.25;;;16.90;71.50;;;;;;6182118;23;45347;-73
2022/12/01 10:27:53;;;;;;;22.10;12.30;;;16.90;71.40;;;;;;6182954;23;46463;-73
2022/12/01 10:30:22;;;;;;;23.08;12.00;;;16.90;71.40;;;;;;6181055;23;45483;-73
2022/12/01 10:32:53;;;;;;;24.23;11.43;;;17.00;71.70;;;;;;6182211;23;45271;-73
2022/12/01 10:35:22;;;;;;;23.70;11.73;;;17.00;71.80;;;;;;6182718;23;45503;-73
2022/12/01 10:37:54;;;;;;;20.75;11.13;;;17.00;71.90;;;;;;6182687;23;45474;-72
2022/12/01 10:40:22;;;;;;;22.42;10.95;;;17.00;72.10;;;;;;6181890;23;45368;-73
2022/12/01 10:42:51;;;;;;;20.20;10.63;;;17.00;71.90;;;;;;6181947;23;45356;-73
2022/12/01 10:45:22;;;;;;;16.92;9.98;;;17.00;72.00;;;;;;6182269;23;45468;-73
2022/12/01 10:48:15;;;;;;;21.20;11.45;;;17.00;71.90;;;;;;6181153;23;45688;-73
2022/12/01 10:50:45;;;;;;;19.45;10.75;;;17.00;72.20;;;;;;6180876;23;45871;-73
2022/12/01 10:53:30;;;;;;;18.30;10.02;;;17.00;72.10;;;;;;6182160;23;45277;-73
2022/12/01 10:56:02;;;;;;;19.10;10.32;;;17.00;72.20;;;;;;6181585;23;45237;-73
2022/12/01 10:58:31;;;;;;;19.52;10.35;;;17.00;72.10;;;;;;6182353;23;45321;-73
2022/12/01 11:01:01;;;;;;;19.80;9.90;;;17.00;72.00;;;;;;6182780;23;45217;-73
2022/12/01 11:03:32;;;;;;;19.58;10.45;;;17.00;72.00;;;;;;6183199;23;45272;-73
2022/12/01 11:06:01;;;;;;;16.30;10.10;;;17.00;71.90;;;;;;6183550;23;45521;-73
2022/12/01 11:08:36;;;;;;;17.65;9.23;;;17.00;72.20;;;;;;6183195;23;45459;-73
2022/12/01 11:11:03;;;;;;;17.98;10.10;;;17.00;71.90;;;;;;6182982;23;45332;-73
2022/12/01 11:13:32;;;;;;;20.25;10.27;;;17.00;72.50;;;;;;6182990;23;45471;-73
2022/12/01 11:16:01;;;;;;;17.95;9.63;;;17.00;72.60;;;;;;6183781;23;45391;-73
2022/12/01 11:18:33;;;;;;;18.65;10.23;;;17.00;72.60;;;;;;6183809;23;45346;-73
2022/12/01 11:21:09;;;;;;;16.20;9.27;;;17.10;72.70;;;;;;6182499;23;45241;-73
2022/12/01 11:23:38;;;;;;;19.40;9.63;;;17.10;72.80;;;;;;6183876;23;45367;-73
2022/12/01 11:26:10;;;;;;;16.38;9.80;;;17.10;72.70;;;;;;6183125;23;45281;-73
2022/12/01 11:28:43;;;;;;;17.90;9.23;;;17.10;72.80;;;;;;6184027;23;45241;-73
2022/12/01 11:31:11;;;;;;;16.98;9.18;;;17.10;72.70;;;;;;6182653;23;45467;-71
2022/12/01 11:33:48;;;;;;;16.35;9.05;;;17.10;72.70;;;;;;6183126;23;45385;-74
2022/12/01 11:36:38;;;;;;;18.30;9.02;;;17.10;72.70;;;;;;6184090;23;45467;-73
2022/12/01 11:39:05;;;;;;;13.85;8.25;;;17.10;73.00;;;;;;6175505;23;46980;-73
2022/12/01 11:41:36;;;;;;;18.27;9.10;;;17.10;72.60;;;;;;6182932;23;45348;-73
2022/12/01 11:44:06;;;;;;;16.92;8.82;;;17.10;72.60;;;;;;6183663;23;45365;-73
2022/12/01 11:46:35;;;;;;;15.90;9.25;;;17.10;72.90;;;;;;6183780;23;45434;-73
2022/12/01 11:49:04;;;;;;;14.77;8.50;;;17.10;72.90;;;;;;6182672;23;47016;-73
2022/12/01 11:51:36;;;;;;;17.95;9.52;;;17.10;72.80;;;;;;6182599;23;45301;-73
2022/12/01 11:54:17;;;;;;;14.93;7.97;;;17.10;72.80;;;;;;6183609;23;45352;-73
2022/12/01 11:56:46;;;;;;;14.75;8.70;;;17.10;72.80;;;;;;6183213;23;45370;-73
2022/12/01 11:59:15;;;;;;;15.70;8.90;;;17.10;72.80;;;;;;6183215;23;46479;-73
2022/12/01 12:02:10;;;;;;;14.07;8.35;;;17.10;72.80;;;;;;6182707;23;45354;-73
2022/12/01 12:04:58;;;;;;;15.38;8.95;;;17.10;72.60;;;;;;6183791;23;45296;-73
2022/12/01 12:07:36;;;;;;;14.93;7.88;;;17.10;72.60;;;;;;6183608;23;45262;-73
2022/12/01 12:10:14;;;;;;;14.27;7.82;;;17.20;72.70;;;;;;6182036;23;46289;-73
2022/12/01 12:12:54;;;;;;;16.08;8.95;;;17.10;72.40;;;;;;6183559;23;45371;-73
2022/12/01 12:15:31;;;;;;;15.10;8.68;;;17.10;72.20;;;;;;6182761;23;45436;-73
2022/12/01 12:18:20;;;;;;;14.25;8.27;;;17.10;72.50;;;;;;6184092;23;45414;-73
2022/12/01 12:21:00;;;;;;;17.65;8.30;;;17.10;72.40;;;;;;6181678;23;47412;-73
2022/12/01 12:23:52;;;;;;;16.65;8.60;;;17.10;72.40;;;;;;6183847;23;45276;-73
2022/12/01 12:26:21;;;;;;;15.13;8.75;;;17.10;72.30;;;;;;6183625;23;45384;-72
2022/12/01 12:29:04;;;;;;;16.02;8.02;;;17.10;72.30;;;;;;6183906;23;45610;-73
2022/12/01 12:31:39;;;;;;;14.13;7.93;;;17.10;72.20;;;;;;6182706;23;45215;-73
2022/12/01 12:34:25;;;;;;;13.23;7.78;;;17.10;72.20;;;;;;6182470;23;45278;-73
2022/12/01 12:37:04;;;;;;;15.32;8.23;;;17.10;72.10;;;;;;6183562;23;45346;-73
2022/12/01 12:40:04;;;;;;;14.88;7.95;;;17.10;72.10;;;;;;6183015;23;45241;-73
2022/12/01 12:42:43;;;;;;;14.23;7.57;;;17.10;72.40;;;;;;6182597;23;47563;-73
2022/12/01 12:45:20;;;;;;;16.98;8.23;;;17.10;72.40;;;;;;6182700;23;45394;-73
2022/12/01 12:48:01;;;;;;;13.32;7.65;;;17.10;72.00;;;;;;6182634;23;45288;-73
2022/12/01 12:50:37;;;;;;;13.50;8.05;;;17.10;71.70;;;;;;6182904;23;45549;-73
2022/12/01 12:53:13;;;;;;;12.65;7.82;;;17.00;71.50;;;;;;6182972;23;47302;-73
2022/12/01 12:55:44;;;;;;;13.77;8.38;;;17.10;71.30;;;;;;6183425;23;45310;-73
2022/12/01 12:58:16;;;;;;;16.80;8.40;;;17.00;71.20;;;;;;6182632;23;45380;-73